sensor_id;sensor_type;location;lat;lon;timestamp;pressure;altitude;pressure_sealevel;temperature;humidity
76687;BME280;65615;47.378;19.344;2023-08-17T04:28:01;100427.94;;;20.43;100.00
76687;BME280;65615;47.378;19.344;2023-08-17T04:32:07;100427.94;;;20.43;100.00
76687;BME280;65615;47.378;19.344;2023-08-17T04:36:09;100422.44;;;19.93;100.00
76687;BME280;65615;47.378;19.344;2023-08-17T04:40:13;100409.19;;;19.98;100.00
76687;BME280;65615;47.378;19.344;2023-08-17T04:44:17;100405.41;;;20.12;100.00
76687;BME280;65615;47.378;19.344;2023-08-17T04:48:20;100404.97;;;20.22;100.00
76687;BME280;65615;47.378;19.344;2023-08-17T04:52:23;100400.00;;;20.25;100.00
76687;BME280;65615;47.378;19.344;2023-08-17T04:56:26;100404.50;;;20.31;100.00
76687;BME280;65615;47.378;19.344;2023-08-17T05:00:30;100410.44;;;20.40;100.00
76687;BME280;65615;47.378;19.344;2023-08-17T05:04:34;100408.56;;;20.41;100.00
76687;BME280;65615;47.378;19.344;2023-08-17T05:08:37;100409.59;;;20.40;100.00
76687;BME280;65615;47.378;19.344;2023-08-17T05:12:40;100409.22;;;20.61;100.00
76687;BME280;65615;47.378;19.344;2023-08-17T05:16:43;100419.31;;;20.90;100.00
76687;BME280;65615;47.378;19.344;2023-08-17T05:20:47;100432.75;;;21.14;100.00
76687;BME280;65615;47.378;19.344;2023-08-17T05:24:49;100425.72;;;21.38;100.00
76687;BME280;65615;47.378;19.344;2023-08-17T05:28:53;100426.59;;;21.50;100.00
76687;BME280;65615;47.378;19.344;2023-08-17T05:32:58;100420.34;;;21.56;100.00
76687;BME280;65615;47.378;19.344;2023-08-17T05:37:01;100419.72;;;21.72;100.00
76687;BME280;65615;47.378;19.344;2023-08-17T05:41:05;100423.59;;;21.94;100.00
76687;BME280;65615;47.378;19.344;2023-08-17T05:45:10;100415.19;;;22.02;100.00
76687;BME280;65615;47.378;19.344;2023-08-17T05:49:13;100420.53;;;22.21;100.00
76687;BME280;65615;47.378;19.344;2023-08-17T05:53:16;100418.03;;;22.37;100.00
76687;BME280;65615;47.378;19.344;2023-08-17T05:57:19;100407.41;;;22.54;100.00
76687;BME280;65615;47.378;19.344;2023-08-17T06:01:22;100415.94;;;22.51;100.00
76687;BME280;65615;47.378;19.344;2023-08-17T06:05:25;100413.81;;;22.41;100.00
76687;BME280;65615;47.378;19.344;2023-08-17T06:09:29;100401.78;;;22.44;100.00
76687;BME280;65615;47.378;19.344;2023-08-17T06:13:32;100391.06;;;22.67;100.00
76687;BME280;65615;47.378;19.344;2023-08-17T06:17:35;100393.31;;;23.16;100.00
76687;BME280;65615;47.378;19.344;2023-08-17T06:21:38;100383.91;;;23.30;100.00
76687;BME280;65615;47.378;19.344;2023-08-17T06:25:41;100379.69;;;23.46;100.00
76687;BME280;65615;47.378;19.344;2023-08-17T06:29:44;100382.44;;;23.34;100.00
76687;BME280;65615;47.378;19.344;2023-08-17T06:33:47;100401.59;;;23.49;100.00
76687;BME280;65615;47.378;19.344;2023-08-17T06:37:50;100402.69;;;23.48;100.00
76687;BME280;65615;47.378;19.344;2023-08-17T06:41:54;100400.56;;;23.50;100.00
76687;BME280;65615;47.378;19.344;2023-08-17T06:45:57;100391.31;;;23.46;100.00
76687;BME280;65615;47.378;19.344;2023-08-17T06:50:03;100393.03;;;23.64;100.00
76687;BME280;65615;47.378;19.344;2023-08-17T06:54:07;100385.50;;;23.66;100.00
76687;BME280;65615;47.378;19.344;2023-08-17T06:58:11;100408.31;;;23.87;100.00
76687;BME280;65615;47.378;19.344;2023-08-17T07:02:14;100407.59;;;24.03;100.00
76687;BME280;65615;47.378;19.344;2023-08-17T07:06:18;100403.22;;;24.30;100.00
76687;BME280;65615;47.378;19.344;2023-08-17T07:10:21;100398.81;;;24.57;100.00
76687;BME280;65615;47.378;19.344;2023-08-17T07:14:24;100400.72;;;24.73;100.00
76687;BME280;65615;47.378;19.344;2023-08-17T07:18:27;100408.03;;;24.89;100.00
76687;BME280;65615;47.378;19.344;2023-08-17T07:22:30;100405.47;;;24.99;100.00
76687;BME280;65615;47.378;19.344;2023-08-17T07:26:33;100404.53;;;25.27;100.00
76687;BME280;65615;47.378;19.344;2023-08-17T07:30:36;100409.69;;;25.28;100.00
76687;BME280;65615;47.378;19.344;2023-08-17T07:34:39;100409.25;;;25.53;100.00
76687;BME280;65615;47.378;19.344;2023-08-17T07:38:42;100420.53;;;25.67;100.00
76687;BME280;65615;47.378;19.344;2023-08-17T07:42:45;100408.97;;;25.98;100.00
76687;BME280;65615;47.378;19.344;2023-08-17T07:46:49;100411.47;;;26.26;100.00
76687;BME280;65615;47.378;19.344;2023-08-17T07:50:52;100397.00;;;26.16;100.00
76687;BME280;65615;47.378;19.344;2023-08-17T07:54:56;100413.66;;;25.81;100.00
76687;BME280;65615;47.378;19.344;2023-08-17T07:58:59;100411.34;;;26.16;100.00
76687;BME280;65615;47.378;19.344;2023-08-17T08:03:02;100406.75;;;26.43;100.00
76687;BME280;65615;47.378;19.344;2023-08-17T08:07:05;100411.00;;;26.34;100.00
76687;BME280;65615;47.378;19.344;2023-08-17T08:11:09;100414.69;;;26.23;100.00
76687;BME280;65615;47.378;19.344;2023-08-17T08:15:12;100407.09;;;26.78;95.31
76687;BME280;65615;47.378;19.344;2023-08-17T08:19:15;100405.19;;;27.21;87.34
76687;BME280;65615;47.378;19.344;2023-08-17T08:23:19;100410.22;;;27.39;86.75
76687;BME280;65615;47.378;19.344;2023-08-17T08:27:21;100417.53;;;27.95;88.19
76687;BME280;65615;47.378;19.344;2023-08-17T08:31:25;100416.41;;;27.91;84.51
76687;BME280;65615;47.378;19.344;2023-08-17T08:35:28;100412.00;;;27.75;85.44
76687;BME280;65615;47.378;19.344;2023-08-17T08:39:51;100408.00;;;27.93;83.15
76687;BME280;65615;47.378;19.344;2023-08-17T08:43:54;100413.25;;;28.19;82.43
76687;BME280;65615;47.378;19.344;2023-08-17T08:47:58;100406.34;;;27.87;81.52
76687;BME280;65615;47.378;19.344;2023-08-17T08:52:03;100405.41;;;26.72;86.51
76687;BME280;65615;47.378;19.344;2023-08-17T08:56:11;100402.41;;;26.42;89.39
76687;BME280;65615;47.378;19.344;2023-08-17T09:00:17;100399.69;;;26.42;91.39
76687;BME280;65615;47.378;19.344;2023-08-17T09:04:21;100406.97;;;26.37;92.12
76687;BME280;65615;47.378;19.344;2023-08-17T09:08:27;100412.22;;;26.48;90.78
76687;BME280;65615;47.378;19.344;2023-08-17T09:12:31;100399.78;;;26.52;90.29
76687;BME280;65615;47.378;19.344;2023-08-17T09:16:42;100403.44;;;26.36;87.18
76687;BME280;65615;47.378;19.344;2023-08-17T09:20:46;100397.16;;;26.62;86.90
76687;BME280;65615;47.378;19.344;2023-08-17T09:24:51;100393.91;;;26.60;85.95
76687;BME280;65615;47.378;19.344;2023-08-17T09:28:54;100391.50;;;26.96;84.14
76687;BME280;65615;47.378;19.344;2023-08-17T09:33:02;100386.72;;;27.13;82.19
76687;BME280;65615;47.378;19.344;2023-08-17T09:37:06;100379.47;;;26.81;79.75
76687;BME280;65615;47.378;19.344;2023-08-17T09:41:09;100373.97;;;26.71;80.46
76687;BME280;65615;47.378;19.344;2023-08-17T09:45:17;100378.63;;;26.81;83.15
76687;BME280;65615;47.378;19.344;2023-08-17T09:49:23;100381.69;;;26.89;84.69
76687;BME280;65615;47.378;19.344;2023-08-17T09:53:28;100375.72;;;26.92;82.56
76687;BME280;65615;47.378;19.344;2023-08-17T09:57:30;100371.28;;;26.76;82.16
76687;BME280;65615;47.378;19.344;2023-08-17T10:01:35;100376.69;;;26.71;81.57
76687;BME280;65615;47.378;19.344;2023-08-17T10:05:40;100366.88;;;26.70;83.26
76687;BME280;65615;47.378;19.344;2023-08-17T10:09:43;100376.50;;;26.56;85.43
76687;BME280;65615;47.378;19.344;2023-08-17T10:13:56;100370.09;;;26.99;83.50
76687;BME280;65615;47.378;19.344;2023-08-17T10:18:09;100366.81;;;26.97;82.54
76687;BME280;65615;47.378;19.344;2023-08-17T10:26:30;100366.22;;;26.90;82.86
76687;BME280;65615;47.378;19.344;2023-08-17T10:30:34;100370.28;;;26.87;83.07
76687;BME280;65615;47.378;19.344;2023-08-17T10:34:39;100371.47;;;27.02;81.68
76687;BME280;65615;47.378;19.344;2023-08-17T10:38:46;100359.63;;;27.23;82.57
76687;BME280;65615;47.378;19.344;2023-08-17T10:42:49;100361.56;;;27.32;83.97
76687;BME280;65615;47.378;19.344;2023-08-17T10:46:56;100371.12;;;27.35;82.08
76687;BME280;65615;47.378;19.344;2023-08-17T10:51:03;100362.34;;;27.23;81.79
76687;BME280;65615;47.378;19.344;2023-08-17T10:55:08;100366.84;;;27.49;83.17
76687;BME280;65615;47.378;19.344;2023-08-17T10:59:24;100363.81;;;27.35;82.67
76687;BME280;65615;47.378;19.344;2023-08-17T11:03:28;100366.59;;;27.04;83.14
76687;BME280;65615;47.378;19.344;2023-08-17T11:07:44;100365.50;;;27.00;83.12
76687;BME280;65615;47.378;19.344;2023-08-17T11:11:52;100361.47;;;27.07;80.80
76687;BME280;65615;47.378;19.344;2023-08-17T11:15:58;100354.84;;;26.93;80.23
76687;BME280;65615;47.378;19.344;2023-08-17T11:20:05;100350.88;;;27.11;82.87
76687;BME280;65615;47.378;19.344;2023-08-17T11:24:10;100358.03;;;27.32;81.59
76687;BME280;65615;47.378;19.344;2023-08-17T11:28:13;100358.72;;;27.54;81.60
76687;BME280;65615;47.378;19.344;2023-08-17T11:32:17;100349.09;;;27.98;81.14
76687;BME280;65615;47.378;19.344;2023-08-17T11:36:20;100348.22;;;27.83;79.66
76687;BME280;65615;47.378;19.344;2023-08-17T11:40:26;100341.50;;;28.05;80.01
76687;BME280;65615;47.378;19.344;2023-08-17T11:44:29;100351.31;;;28.31;81.83
76687;BME280;65615;47.378;19.344;2023-08-17T11:48:32;100344.69;;;27.92;78.65
76687;BME280;65615;47.378;19.344;2023-08-17T11:52:38;100354.47;;;27.88;80.25
76687;BME280;65615;47.378;19.344;2023-08-17T11:56:47;100353.91;;;27.76;78.89
76687;BME280;65615;47.378;19.344;2023-08-17T12:00:50;100342.59;;;27.99;77.78
76687;BME280;65615;47.378;19.344;2023-08-17T12:04:55;100349.16;;;28.33;77.73
76687;BME280;65615;47.378;19.344;2023-08-17T12:08:59;100341.00;;;28.58;78.25
76687;BME280;65615;47.378;19.344;2023-08-17T12:13:02;100342.72;;;29.44;76.46
76687;BME280;65615;47.378;19.344;2023-08-17T12:17:05;100333.81;;;29.28;72.62
76687;BME280;65615;47.378;19.344;2023-08-17T12:21:08;100328.28;;;29.48;69.75
76687;BME280;65615;47.378;19.344;2023-08-17T12:25:11;100327.81;;;29.31;72.62
76687;BME280;65615;47.378;19.344;2023-08-17T12:29:15;100313.94;;;29.22;71.18
76687;BME280;65615;47.378;19.344;2023-08-17T12:33:18;100313.34;;;30.90;65.30
76687;BME280;65615;47.378;19.344;2023-08-17T12:37:21;100308.22;;;30.84;59.62
76687;BME280;65615;47.378;19.344;2023-08-17T12:41:24;100312.00;;;30.26;60.35
76687;BME280;65615;47.378;19.344;2023-08-17T12:45:27;100301.22;;;30.73;58.61
76687;BME280;65615;47.378;19.344;2023-08-17T12:49:32;100297.22;;;31.60;53.84
76687;BME280;65615;47.378;19.344;2023-08-17T12:53:41;100288.81;;;31.09;56.47
76687;BME280;65615;47.378;19.344;2023-08-17T12:57:44;100288.50;;;30.35;59.76
76687;BME280;65615;47.378;19.344;2023-08-17T13:01:47;100285.06;;;30.19;61.18
76687;BME280;65615;47.378;19.344;2023-08-17T13:05:50;100269.94;;;30.37;59.13
76687;BME280;65615;47.378;19.344;2023-08-17T13:09:53;100268.13;;;30.56;59.41
76687;BME280;65615;47.378;19.344;2023-08-17T13:13:56;100266.47;;;30.55;59.11
76687;BME280;65615;47.378;19.344;2023-08-17T13:17:59;100266.88;;;30.95;56.34
76687;BME280;65615;47.378;19.344;2023-08-17T13:22:02;100259.31;;;30.64;56.36
76687;BME280;65615;47.378;19.344;2023-08-17T13:26:05;100249.12;;;29.78;62.01
76687;BME280;65615;47.378;19.344;2023-08-17T13:30:08;100252.31;;;30.53;59.27
76687;BME280;65615;47.378;19.344;2023-08-17T13:34:11;100255.13;;;31.42;55.48
76687;BME280;65615;47.378;19.344;2023-08-17T13:38:14;100248.09;;;31.55;53.81
76687;BME280;65615;47.378;19.344;2023-08-17T13:42:17;100236.97;;;33.07;50.51
76687;BME280;65615;47.378;19.344;2023-08-17T13:46:20;100237.19;;;32.97;52.25
76687;BME280;65615;47.378;19.344;2023-08-17T13:50:23;100246.53;;;33.45;50.79
76687;BME280;65615;47.378;19.344;2023-08-17T13:54:26;100233.53;;;33.87;46.86
76687;BME280;65615;47.378;19.344;2023-08-17T13:58:29;100236.94;;;34.37;45.68
76687;BME280;65615;47.378;19.344;2023-08-17T14:02:32;100226.28;;;33.19;47.97
76687;BME280;65615;47.378;19.344;2023-08-17T14:06:35;100226.31;;;34.13;49.05
76687;BME280;65615;47.378;19.344;2023-08-17T14:10:38;100223.41;;;33.52;46.08
76687;BME280;65615;47.378;19.344;2023-08-17T14:14:42;100237.53;;;33.31;45.73
76687;BME280;65615;47.378;19.344;2023-08-17T14:18:44;100231.28;;;33.04;47.27
76687;BME280;65615;47.378;19.344;2023-08-17T14:22:48;100221.72;;;32.47;46.48
76687;BME280;65615;47.378;19.344;2023-08-17T14:26:51;100229.56;;;32.21;48.24
76687;BME280;65615;47.378;19.344;2023-08-17T14:30:54;100223.97;;;30.54;51.23
76687;BME280;65615;47.378;19.344;2023-08-17T14:34:57;100227.84;;;30.48;53.17
76687;BME280;65615;47.378;19.344;2023-08-17T14:39:00;100227.66;;;31.52;50.09
76687;BME280;65615;47.378;19.344;2023-08-17T14:43:03;100222.50;;;30.38;53.03
76687;BME280;65615;47.378;19.344;2023-08-17T14:47:06;100221.97;;;30.88;51.92
76687;BME280;65615;47.378;19.344;2023-08-17T14:51:09;100226.28;;;31.31;51.00
76687;BME280;65615;47.378;19.344;2023-08-17T14:55:12;100214.97;;;30.77;53.46
76687;BME280;65615;47.378;19.344;2023-08-17T14:59:15;100213.63;;;30.22;53.81
76687;BME280;65615;47.378;19.344;2023-08-17T15:03:18;100214.22;;;29.85;56.33
76687;BME280;65615;47.378;19.344;2023-08-17T15:07:26;100222.06;;;28.99;59.12
76687;BME280;65615;47.378;19.344;2023-08-17T15:11:29;100208.31;;;28.61;60.41
76687;BME280;65615;47.378;19.344;2023-08-17T15:15:32;100210.00;;;28.31;61.20
76687;BME280;65615;47.378;19.344;2023-08-17T15:19:35;100210.28;;;27.95;64.03
76687;BME280;65615;47.378;19.344;2023-08-17T15:23:42;100203.50;;;27.97;64.30
76687;BME280;65615;47.378;19.344;2023-08-17T15:27:45;100201.84;;;27.76;65.90
